sensor_id;sensor_type;location;lat;lon;timestamp;P1;durP1;ratioP1;P2;durP2;ratioP2
15946;SDS011;8072;52.554;7.966;2023-11-19T00:00:22;24.07;;;16.43;;
15946;SDS011;8072;52.554;7.966;2023-11-19T00:02:48;23.43;;;16.20;;
15946;SDS011;8072;52.554;7.966;2023-11-19T00:05:19;23.20;;;16.07;;
15946;SDS011;8072;52.554;7.966;2023-11-19T00:07:45;22.50;;;15.30;;
15946;SDS011;8072;52.554;7.966;2023-11-19T00:10:12;22.87;;;16.03;;
15946;SDS011;8072;52.554;7.966;2023-11-19T00:12:39;21.83;;;16.13;;
15946;SDS011;8072;52.554;7.966;2023-11-19T00:15:09;21.37;;;15.17;;
15946;SDS011;8072;52.554;7.966;2023-11-19T00:17:41;37.73;;;17.80;;
15946;SDS011;8072;52.554;7.966;2023-11-19T00:20:10;21.40;;;15.30;;
15946;SDS011;8072;52.554;7.966;2023-11-19T00:22:37;21.50;;;14.70;;
15946;SDS011;8072;52.554;7.966;2023-11-19T00:25:03;26.20;;;16.40;;
15946;SDS011;8072;52.554;7.966;2023-11-19T00:27:29;22.40;;;15.30;;
15946;SDS011;8072;52.554;7.966;2023-11-19T00:29:55;23.93;;;15.80;;
15946;SDS011;8072;52.554;7.966;2023-11-19T00:32:22;22.47;;;15.47;;
15946;SDS011;8072;52.554;7.966;2023-11-19T00:34:48;22.07;;;14.93;;
15946;SDS011;8072;52.554;7.966;2023-11-19T00:37:14;22.17;;;15.33;;
15946;SDS011;8072;52.554;7.966;2023-11-19T00:39:43;20.50;;;14.90;;
15946;SDS011;8072;52.554;7.966;2023-11-19T00:42:09;23.23;;;15.27;;
15946;SDS011;8072;52.554;7.966;2023-11-19T00:44:35;23.47;;;15.17;;
15946;SDS011;8072;52.554;7.966;2023-11-19T00:47:01;22.60;;;15.73;;
15946;SDS011;8072;52.554;7.966;2023-11-19T00:49:27;22.90;;;15.63;;
15946;SDS011;8072;52.554;7.966;2023-11-19T00:51:53;22.30;;;14.90;;
15946;SDS011;8072;52.554;7.966;2023-11-19T00:54:19;22.57;;;15.50;;
15946;SDS011;8072;52.554;7.966;2023-11-19T00:56:45;21.37;;;14.57;;
15946;SDS011;8072;52.554;7.966;2023-11-19T00:59:10;22.83;;;15.47;;
15946;SDS011;8072;52.554;7.966;2023-11-19T01:01:36;22.93;;;15.20;;
15946;SDS011;8072;52.554;7.966;2023-11-19T01:04:02;24.10;;;15.13;;
15946;SDS011;8072;52.554;7.966;2023-11-19T01:06:29;22.13;;;15.67;;
15946;SDS011;8072;52.554;7.966;2023-11-19T01:08:56;21.23;;;15.07;;
15946;SDS011;8072;52.554;7.966;2023-11-19T01:11:22;23.73;;;15.73;;
15946;SDS011;8072;52.554;7.966;2023-11-19T01:13:49;23.87;;;15.80;;
15946;SDS011;8072;52.554;7.966;2023-11-19T01:16:15;22.23;;;16.13;;
15946;SDS011;8072;52.554;7.966;2023-11-19T01:18:41;21.40;;;14.57;;
15946;SDS011;8072;52.554;7.966;2023-11-19T01:21:07;20.23;;;14.40;;
15946;SDS011;8072;52.554;7.966;2023-11-19T01:23:33;21.90;;;15.07;;
15946;SDS011;8072;52.554;7.966;2023-11-19T01:26:00;21.83;;;14.57;;
15946;SDS011;8072;52.554;7.966;2023-11-19T01:28:25;20.70;;;14.57;;
15946;SDS011;8072;52.554;7.966;2023-11-19T01:30:51;20.73;;;14.17;;
15946;SDS011;8072;52.554;7.966;2023-11-19T01:33:17;22.30;;;15.37;;
15946;SDS011;8072;52.554;7.966;2023-11-19T01:35:43;23.27;;;15.23;;
15946;SDS011;8072;52.554;7.966;2023-11-19T01:38:09;21.90;;;15.07;;
15946;SDS011;8072;52.554;7.966;2023-11-19T01:40:35;20.17;;;14.20;;
15946;SDS011;8072;52.554;7.966;2023-11-19T01:43:03;19.10;;;13.80;;
15946;SDS011;8072;52.554;7.966;2023-11-19T01:45:30;18.73;;;13.53;;
15946;SDS011;8072;52.554;7.966;2023-11-19T01:48:00;21.87;;;14.13;;
15946;SDS011;8072;52.554;7.966;2023-11-19T01:50:29;19.53;;;13.97;;
15946;SDS011;8072;52.554;7.966;2023-11-19T01:52:56;20.43;;;13.70;;
15946;SDS011;8072;52.554;7.966;2023-11-19T01:55:24;22.47;;;15.57;;
15946;SDS011;8072;52.554;7.966;2023-11-19T01:57:52;24.87;;;15.23;;
15946;SDS011;8072;52.554;7.966;2023-11-19T02:00:20;23.90;;;15.53;;
15946;SDS011;8072;52.554;7.966;2023-11-19T02:02:46;23.57;;;14.80;;
15946;SDS011;8072;52.554;7.966;2023-11-19T02:05:13;23.60;;;15.63;;
15946;SDS011;8072;52.554;7.966;2023-11-19T02:07:39;23.53;;;15.33;;
15946;SDS011;8072;52.554;7.966;2023-11-19T02:10:05;22.70;;;15.37;;
15946;SDS011;8072;52.554;7.966;2023-11-19T02:12:32;25.17;;;16.00;;
15946;SDS011;8072;52.554;7.966;2023-11-19T02:15:01;23.63;;;14.90;;
15946;SDS011;8072;52.554;7.966;2023-11-19T02:17:28;26.23;;;15.27;;
15946;SDS011;8072;52.554;7.966;2023-11-19T02:19:59;25.40;;;15.30;;
15946;SDS011;8072;52.554;7.966;2023-11-19T02:22:25;23.87;;;14.83;;
15946;SDS011;8072;52.554;7.966;2023-11-19T02:24:51;26.37;;;15.47;;
15946;SDS011;8072;52.554;7.966;2023-11-19T02:30:23;25.20;;;15.33;;
15946;SDS011;8072;52.554;7.966;2023-11-19T02:33:00;27.13;;;14.60;;
15946;SDS011;8072;52.554;7.966;2023-11-19T02:35:30;22.13;;;14.90;;
15946;SDS011;8072;52.554;7.966;2023-11-19T02:37:58;25.57;;;15.07;;
15946;SDS011;8072;52.554;7.966;2023-11-19T02:40:29;29.60;;;15.43;;
15946;SDS011;8072;52.554;7.966;2023-11-19T02:42:55;26.37;;;15.20;;
15946;SDS011;8072;52.554;7.966;2023-11-19T02:45:24;25.27;;;15.57;;
15946;SDS011;8072;52.554;7.966;2023-11-19T02:47:51;24.13;;;15.17;;
15946;SDS011;8072;52.554;7.966;2023-11-19T02:50:20;26.40;;;14.40;;
15946;SDS011;8072;52.554;7.966;2023-11-19T02:52:53;30.53;;;16.30;;
15946;SDS011;8072;52.554;7.966;2023-11-19T02:55:21;30.17;;;14.47;;
15946;SDS011;8072;52.554;7.966;2023-11-19T02:57:49;23.70;;;14.40;;
15946;SDS011;8072;52.554;7.966;2023-11-19T03:00:15;28.37;;;15.43;;
15946;SDS011;8072;52.554;7.966;2023-11-19T03:02:43;27.60;;;14.73;;
15946;SDS011;8072;52.554;7.966;2023-11-19T03:05:11;25.87;;;14.03;;
15946;SDS011;8072;52.554;7.966;2023-11-19T03:07:42;25.17;;;14.53;;
15946;SDS011;8072;52.554;7.966;2023-11-19T03:10:12;24.07;;;14.47;;
15946;SDS011;8072;52.554;7.966;2023-11-19T03:12:43;24.37;;;13.47;;
15946;SDS011;8072;52.554;7.966;2023-11-19T03:15:10;22.33;;;13.13;;
15946;SDS011;8072;52.554;7.966;2023-11-19T03:17:40;23.67;;;14.43;;
15946;SDS011;8072;52.554;7.966;2023-11-19T03:20:07;25.23;;;13.83;;
15946;SDS011;8072;52.554;7.966;2023-11-19T03:22:36;25.07;;;14.07;;
15946;SDS011;8072;52.554;7.966;2023-11-19T03:25:03;22.30;;;13.07;;
15946;SDS011;8072;52.554;7.966;2023-11-19T03:27:29;24.40;;;12.73;;
15946;SDS011;8072;52.554;7.966;2023-11-19T03:29:55;23.30;;;13.30;;
15946;SDS011;8072;52.554;7.966;2023-11-19T03:32:21;22.30;;;13.00;;
15946;SDS011;8072;52.554;7.966;2023-11-19T03:34:47;24.27;;;12.80;;
15946;SDS011;8072;52.554;7.966;2023-11-19T03:37:12;28.10;;;14.23;;
15946;SDS011;8072;52.554;7.966;2023-11-19T03:39:42;26.67;;;11.90;;
15946;SDS011;8072;52.554;7.966;2023-11-19T03:42:08;22.53;;;12.47;;
15946;SDS011;8072;52.554;7.966;2023-11-19T03:44:34;22.70;;;12.00;;
15946;SDS011;8072;52.554;7.966;2023-11-19T03:47:01;19.57;;;11.53;;
15946;SDS011;8072;52.554;7.966;2023-11-19T03:49:30;19.67;;;11.57;;
15946;SDS011;8072;52.554;7.966;2023-11-19T03:51:55;30.67;;;12.37;;
15946;SDS011;8072;52.554;7.966;2023-11-19T03:54:21;27.10;;;12.10;;
15946;SDS011;8072;52.554;7.966;2023-11-19T03:56:48;24.57;;;11.63;;
15946;SDS011;8072;52.554;7.966;2023-11-19T03:59:14;27.00;;;12.07;;
15946;SDS011;8072;52.554;7.966;2023-11-19T04:01:40;22.00;;;10.50;;
15946;SDS011;8072;52.554;7.966;2023-11-19T04:04:06;23.77;;;10.40;;
15946;SDS011;8072;52.554;7.966;2023-11-19T04:06:32;21.73;;;11.77;;
15946;SDS011;8072;52.554;7.966;2023-11-19T04:08:58;23.77;;;10.73;;
15946;SDS011;8072;52.554;7.966;2023-11-19T04:11:24;25.70;;;10.47;;
15946;SDS011;8072;52.554;7.966;2023-11-19T04:13:50;21.80;;;10.17;;
15946;SDS011;8072;52.554;7.966;2023-11-19T04:16:16;19.67;;;10.23;;
15946;SDS011;8072;52.554;7.966;2023-11-19T04:18:42;20.70;;;9.93;;
15946;SDS011;8072;52.554;7.966;2023-11-19T04:21:08;20.90;;;10.07;;
15946;SDS011;8072;52.554;7.966;2023-11-19T04:23:33;24.33;;;9.97;;
15946;SDS011;8072;52.554;7.966;2023-11-19T04:26:03;19.17;;;9.63;;
15946;SDS011;8072;52.554;7.966;2023-11-19T04:28:30;19.80;;;8.83;;
15946;SDS011;8072;52.554;7.966;2023-11-19T04:30:57;20.23;;;9.53;;
15946;SDS011;8072;52.554;7.966;2023-11-19T04:33:23;24.63;;;9.77;;
15946;SDS011;8072;52.554;7.966;2023-11-19T04:35:51;24.67;;;9.23;;
15946;SDS011;8072;52.554;7.966;2023-11-19T04:38:17;22.10;;;8.50;;
15946;SDS011;8072;52.554;7.966;2023-11-19T04:40:44;27.83;;;8.23;;
15946;SDS011;8072;52.554;7.966;2023-11-19T04:43:10;20.90;;;7.50;;
15946;SDS011;8072;52.554;7.966;2023-11-19T04:45:36;25.40;;;6.30;;
15946;SDS011;8072;52.554;7.966;2023-11-19T04:48:02;23.57;;;6.67;;
15946;SDS011;8072;52.554;7.966;2023-11-19T04:50:29;19.80;;;6.50;;
15946;SDS011;8072;52.554;7.966;2023-11-19T04:52:56;19.07;;;6.60;;
15946;SDS011;8072;52.554;7.966;2023-11-19T04:55:22;25.77;;;7.27;;
15946;SDS011;8072;52.554;7.966;2023-11-19T04:57:48;24.17;;;5.60;;
15946;SDS011;8072;52.554;7.966;2023-11-19T05:00:14;24.90;;;5.57;;
15946;SDS011;8072;52.554;7.966;2023-11-19T05:02:41;18.03;;;5.20;;
15946;SDS011;8072;52.554;7.966;2023-11-19T05:05:07;20.40;;;5.77;;
15946;SDS011;8072;52.554;7.966;2023-11-19T05:07:34;22.33;;;5.47;;
15946;SDS011;8072;52.554;7.966;2023-11-19T05:10:00;19.57;;;5.50;;
15946;SDS011;8072;52.554;7.966;2023-11-19T05:12:26;29.37;;;5.60;;
15946;SDS011;8072;52.554;7.966;2023-11-19T05:14:54;25.33;;;5.83;;
15946;SDS011;8072;52.554;7.966;2023-11-19T05:17:20;26.30;;;5.73;;
15946;SDS011;8072;52.554;7.966;2023-11-19T05:19:47;20.00;;;5.63;;
15946;SDS011;8072;52.554;7.966;2023-11-19T05:22:13;19.93;;;4.13;;
15946;SDS011;8072;52.554;7.966;2023-11-19T05:24:39;20.07;;;4.60;;
15946;SDS011;8072;52.554;7.966;2023-11-19T05:27:07;28.87;;;5.17;;
15946;SDS011;8072;52.554;7.966;2023-11-19T05:29:37;25.30;;;5.40;;
15946;SDS011;8072;52.554;7.966;2023-11-19T05:32:08;20.77;;;4.57;;
15946;SDS011;8072;52.554;7.966;2023-11-19T05:34:34;29.80;;;5.93;;
15946;SDS011;8072;52.554;7.966;2023-11-19T05:37:00;24.77;;;5.03;;
15946;SDS011;8072;52.554;7.966;2023-11-19T05:39:27;25.03;;;5.47;;
15946;SDS011;8072;52.554;7.966;2023-11-19T05:41:53;28.23;;;4.90;;
15946;SDS011;8072;52.554;7.966;2023-11-19T05:44:26;22.30;;;5.00;;
15946;SDS011;8072;52.554;7.966;2023-11-19T05:46:53;22.63;;;5.00;;
15946;SDS011;8072;52.554;7.966;2023-11-19T05:49:21;25.30;;;4.60;;
15946;SDS011;8072;52.554;7.966;2023-11-19T05:51:48;24.00;;;4.80;;
15946;SDS011;8072;52.554;7.966;2023-11-19T05:54:14;23.80;;;4.60;;
15946;SDS011;8072;52.554;7.966;2023-11-19T05:56:40;25.83;;;5.53;;
15946;SDS011;8072;52.554;7.966;2023-11-19T05:59:07;23.33;;;5.07;;
15946;SDS011;8072;52.554;7.966;2023-11-19T06:01:40;22.17;;;5.03;;
15946;SDS011;8072;52.554;7.966;2023-11-19T06:04:07;23.50;;;5.20;;
15946;SDS011;8072;52.554;7.966;2023-11-19T06:06:33;22.27;;;4.90;;
15946;SDS011;8072;52.554;7.966;2023-11-19T06:09:00;28.37;;;5.00;;
15946;SDS011;8072;52.554;7.966;2023-11-19T06:11:27;38.87;;;6.30;;
15946;SDS011;8072;52.554;7.966;2023-11-19T06:13:53;27.77;;;4.87;;
15946;SDS011;8072;52.554;7.966;2023-11-19T06:16:19;26.17;;;4.83;;
15946;SDS011;8072;52.554;7.966;2023-11-19T06:18:45;22.80;;;5.00;;
15946;SDS011;8072;52.554;7.966;2023-11-19T06:21:11;19.80;;;4.87;;
15946;SDS011;8072;52.554;7.966;2023-11-19T06:23:37;26.60;;;4.70;;
15946;SDS011;8072;52.554;7.966;2023-11-19T06:26:04;27.60;;;4.47;;
15946;SDS011;8072;52.554;7.966;2023-11-19T06:28:30;32.33;;;4.77;;
15946;SDS011;8072;52.554;7.966;2023-11-19T06:30:57;26.57;;;5.17;;
15946;SDS011;8072;52.554;7.966;2023-11-19T06:33:26;31.13;;;5.30;;
15946;SDS011;8072;52.554;7.966;2023-11-19T06:35:52;30.10;;;5.57;;
15946;SDS011;8072;52.554;7.966;2023-11-19T06:38:19;28.77;;;5.07;;
15946;SDS011;8072;52.554;7.966;2023-11-19T06:40:45;31.67;;;8.03;;
15946;SDS011;8072;52.554;7.966;2023-11-19T06:43:11;33.87;;;5.57;;
15946;SDS011;8072;52.554;7.966;2023-11-19T06:45:37;28.93;;;5.13;;
15946;SDS011;8072;52.554;7.966;2023-11-19T06:48:03;24.77;;;5.57;;
15946;SDS011;8072;52.554;7.966;2023-11-19T06:50:30;30.73;;;5.13;;
15946;SDS011;8072;52.554;7.966;2023-11-19T06:52:57;32.83;;;5.40;;
15946;SDS011;8072;52.554;7.966;2023-11-19T06:55:22;31.30;;;4.97;;
15946;SDS011;8072;52.554;7.966;2023-11-19T06:57:48;25.80;;;4.90;;
15946;SDS011;8072;52.554;7.966;2023-11-19T07:00:14;34.10;;;5.00;;
15946;SDS011;8072;52.554;7.966;2023-11-19T07:02:40;30.13;;;5.27;;
15946;SDS011;8072;52.554;7.966;2023-11-19T07:05:06;25.37;;;5.07;;
15946;SDS011;8072;52.554;7.966;2023-11-19T07:07:33;32.90;;;4.87;;
15946;SDS011;8072;52.554;7.966;2023-11-19T07:10:00;33.27;;;5.03;;
15946;SDS011;8072;52.554;7.966;2023-11-19T07:12:27;32.30;;;6.37;;
15946;SDS011;8072;52.554;7.966;2023-11-19T07:14:53;33.17;;;5.83;;
15946;SDS011;8072;52.554;7.966;2023-11-19T07:17:20;26.73;;;5.20;;
15946;SDS011;8072;52.554;7.966;2023-11-19T07:19:49;24.17;;;5.50;;
15946;SDS011;8072;52.554;7.966;2023-11-19T07:22:15;27.20;;;5.40;;
15946;SDS011;8072;52.554;7.966;2023-11-19T07:24:41;28.77;;;5.17;;
15946;SDS011;8072;52.554;7.966;2023-11-19T07:27:07;48.83;;;7.90;;
15946;SDS011;8072;52.554;7.966;2023-11-19T07:29:34;35.23;;;5.47;;
15946;SDS011;8072;52.554;7.966;2023-11-19T07:32:00;33.23;;;6.30;;
15946;SDS011;8072;52.554;7.966;2023-11-19T07:34:27;24.20;;;4.87;;
15946;SDS011;8072;52.554;7.966;2023-11-19T07:36:54;35.50;;;5.90;;
15946;SDS011;8072;52.554;7.966;2023-11-19T07:39:24;30.37;;;5.77;;
15946;SDS011;8072;52.554;7.966;2023-11-19T07:41:50;33.80;;;5.40;;
15946;SDS011;8072;52.554;7.966;2023-11-19T07:44:15;30.03;;;4.67;;
15946;SDS011;8072;52.554;7.966;2023-11-19T07:46:41;25.17;;;5.10;;
15946;SDS011;8072;52.554;7.966;2023-11-19T07:49:07;30.23;;;5.27;;
15946;SDS011;8072;52.554;7.966;2023-11-19T07:51:34;21.47;;;4.17;;
15946;SDS011;8072;52.554;7.966;2023-11-19T07:54:01;35.37;;;5.13;;
15946;SDS011;8072;52.554;7.966;2023-11-19T07:56:27;31.87;;;4.93;;
15946;SDS011;8072;52.554;7.966;2023-11-19T07:58:52;31.37;;;5.83;;
15946;SDS011;8072;52.554;7.966;2023-11-19T08:01:18;29.87;;;5.27;;
15946;SDS011;8072;52.554;7.966;2023-11-19T08:03:44;32.40;;;5.50;;
15946;SDS011;8072;52.554;7.966;2023-11-19T08:06:09;30.33;;;5.57;;
15946;SDS011;8072;52.554;7.966;2023-11-19T08:08:35;32.87;;;5.00;;
15946;SDS011;8072;52.554;7.966;2023-11-19T08:11:03;31.83;;;4.90;;
15946;SDS011;8072;52.554;7.966;2023-11-19T08:13:30;38.13;;;6.17;;
15946;SDS011;8072;52.554;7.966;2023-11-19T08:15:56;33.93;;;4.93;;
15946;SDS011;8072;52.554;7.966;2023-11-19T08:18:23;34.07;;;4.17;;
15946;SDS011;8072;52.554;7.966;2023-11-19T08:20:49;25.77;;;4.70;;
15946;SDS011;8072;52.554;7.966;2023-11-19T08:23:18;36.53;;;5.03;;
15946;SDS011;8072;52.554;7.966;2023-11-19T08:25:45;27.87;;;4.60;;
15946;SDS011;8072;52.554;7.966;2023-11-19T08:28:11;28.77;;;5.40;;
15946;SDS011;8072;52.554;7.966;2023-11-19T08:30:36;27.77;;;4.97;;
15946;SDS011;8072;52.554;7.966;2023-11-19T08:33:02;32.07;;;5.90;;
15946;SDS011;8072;52.554;7.966;2023-11-19T08:35:31;32.10;;;4.87;;
15946;SDS011;8072;52.554;7.966;2023-11-19T08:37:57;35.13;;;5.70;;
15946;SDS011;8072;52.554;7.966;2023-11-19T08:40:24;42.57;;;6.33;;
15946;SDS011;8072;52.554;7.966;2023-11-19T08:42:51;28.33;;;5.93;;
15946;SDS011;8072;52.554;7.966;2023-11-19T08:45:17;33.40;;;6.17;;
15946;SDS011;8072;52.554;7.966;2023-11-19T08:47:43;35.23;;;7.17;;
15946;SDS011;8072;52.554;7.966;2023-11-19T08:50:10;26.67;;;5.50;;
15946;SDS011;8072;52.554;7.966;2023-11-19T08:52:36;30.57;;;5.03;;
15946;SDS011;8072;52.554;7.966;2023-11-19T08:55:02;31.93;;;5.10;;
15946;SDS011;8072;52.554;7.966;2023-11-19T08:57:30;39.07;;;5.13;;
15946;SDS011;8072;52.554;7.966;2023-11-19T08:59:57;35.27;;;5.17;;
15946;SDS011;8072;52.554;7.966;2023-11-19T09:02:23;30.40;;;5.10;;
15946;SDS011;8072;52.554;7.966;2023-11-19T09:04:49;34.97;;;6.00;;
15946;SDS011;8072;52.554;7.966;2023-11-19T09:07:15;33.77;;;5.63;;
15946;SDS011;8072;52.554;7.966;2023-11-19T09:09:41;38.33;;;5.17;;
15946;SDS011;8072;52.554;7.966;2023-11-19T09:12:06;31.20;;;4.93;;
15946;SDS011;8072;52.554;7.966;2023-11-19T09:14:32;27.37;;;4.73;;
15946;SDS011;8072;52.554;7.966;2023-11-19T09:16:58;29.13;;;5.43;;
15946;SDS011;8072;52.554;7.966;2023-11-19T09:19:24;37.23;;;5.00;;
15946;SDS011;8072;52.554;7.966;2023-11-19T09:21:51;20.60;;;4.50;;
15946;SDS011;8072;52.554;7.966;2023-11-19T09:24:18;30.53;;;4.97;;
15946;SDS011;8072;52.554;7.966;2023-11-19T09:26:43;27.80;;;4.83;;
15946;SDS011;8072;52.554;7.966;2023-11-19T09:29:09;36.23;;;5.87;;
15946;SDS011;8072;52.554;7.966;2023-11-19T09:31:37;32.27;;;5.00;;
15946;SDS011;8072;52.554;7.966;2023-11-19T09:34:03;29.60;;;5.63;;
15946;SDS011;8072;52.554;7.966;2023-11-19T09:36:29;34.17;;;5.20;;
15946;SDS011;8072;52.554;7.966;2023-11-19T09:38:54;37.37;;;6.40;;
15946;SDS011;8072;52.554;7.966;2023-11-19T09:41:20;28.97;;;5.47;;
15946;SDS011;8072;52.554;7.966;2023-11-19T09:43:46;31.33;;;5.30;;
15946;SDS011;8072;52.554;7.966;2023-11-19T09:46:13;32.97;;;5.20;;
15946;SDS011;8072;52.554;7.966;2023-11-19T09:48:40;36.00;;;5.80;;
15946;SDS011;8072;52.554;7.966;2023-11-19T09:51:07;28.87;;;5.33;;
15946;SDS011;8072;52.554;7.966;2023-11-19T09:53:34;29.13;;;4.80;;
15946;SDS011;8072;52.554;7.966;2023-11-19T09:56:04;32.93;;;5.63;;
15946;SDS011;8072;52.554;7.966;2023-11-19T09:58:31;30.23;;;5.17;;
15946;SDS011;8072;52.554;7.966;2023-11-19T10:00:58;41.17;;;5.43;;
15946;SDS011;8072;52.554;7.966;2023-11-19T10:03:24;27.60;;;5.07;;
15946;SDS011;8072;52.554;7.966;2023-11-19T10:06:03;31.70;;;5.20;;
15946;SDS011;8072;52.554;7.966;2023-11-19T10:08:29;28.47;;;5.20;;
15946;SDS011;8072;52.554;7.966;2023-11-19T10:10:55;29.73;;;4.97;;
15946;SDS011;8072;52.554;7.966;2023-11-19T10:13:25;25.03;;;4.87;;
15946;SDS011;8072;52.554;7.966;2023-11-19T10:15:52;30.30;;;4.33;;
15946;SDS011;8072;52.554;7.966;2023-11-19T10:18:18;23.93;;;5.57;;
15946;SDS011;8072;52.554;7.966;2023-11-19T10:20:48;30.90;;;5.17;;
15946;SDS011;8072;52.554;7.966;2023-11-19T10:23:14;27.07;;;4.57;;
15946;SDS011;8072;52.554;7.966;2023-11-19T10:25:40;26.17;;;4.40;;
15946;SDS011;8072;52.554;7.966;2023-11-19T10:28:05;30.13;;;5.73;;
15946;SDS011;8072;52.554;7.966;2023-11-19T10:30:31;34.23;;;6.80;;
15946;SDS011;8072;52.554;7.966;2023-11-19T10:35:35;29.77;;;4.87;;
15946;SDS011;8072;52.554;7.966;2023-11-19T10:38:14;32.13;;;5.40;;
15946;SDS011;8072;52.554;7.966;2023-11-19T10:40:40;37.00;;;5.33;;
15946;SDS011;8072;52.554;7.966;2023-11-19T10:43:06;25.23;;;4.70;;
15946;SDS011;8072;52.554;7.966;2023-11-19T10:45:33;39.43;;;5.43;;
15946;SDS011;8072;52.554;7.966;2023-11-19T10:48:02;30.67;;;6.77;;
15946;SDS011;8072;52.554;7.966;2023-11-19T10:50:38;29.03;;;5.50;;
15946;SDS011;8072;52.554;7.966;2023-11-19T10:53:06;26.47;;;5.03;;
15946;SDS011;8072;52.554;7.966;2023-11-19T10:55:34;31.07;;;5.27;;
15946;SDS011;8072;52.554;7.966;2023-11-19T10:58:01;27.50;;;4.70;;
15946;SDS011;8072;52.554;7.966;2023-11-19T11:00:29;37.30;;;5.50;;
15946;SDS011;8072;52.554;7.966;2023-11-19T11:02:59;28.97;;;6.13;;
15946;SDS011;8072;52.554;7.966;2023-11-19T11:05:26;30.43;;;5.23;;
15946;SDS011;8072;52.554;7.966;2023-11-19T11:07:52;34.87;;;5.47;;
15946;SDS011;8072;52.554;7.966;2023-11-19T11:10:21;34.60;;;6.17;;
15946;SDS011;8072;52.554;7.966;2023-11-19T11:12:51;29.10;;;5.60;;
15946;SDS011;8072;52.554;7.966;2023-11-19T11:15:25;25.93;;;4.80;;
15946;SDS011;8072;52.554;7.966;2023-11-19T11:17:54;33.07;;;5.53;;
15946;SDS011;8072;52.554;7.966;2023-11-19T11:20:25;26.87;;;5.07;;
15946;SDS011;8072;52.554;7.966;2023-11-19T11:25:48;28.83;;;4.73;;
15946;SDS011;8072;52.554;7.966;2023-11-19T11:39:12;35.57;;;6.00;;
15946;SDS011;8072;52.554;7.966;2023-11-19T11:41:38;32.40;;;6.23;;
15946;SDS011;8072;52.554;7.966;2023-11-19T11:44:04;36.17;;;6.40;;
15946;SDS011;8072;52.554;7.966;2023-11-19T11:49:01;31.00;;;6.47;;
15946;SDS011;8072;52.554;7.966;2023-11-19T11:54:11;28.27;;;5.37;;
15946;SDS011;8072;52.554;7.966;2023-11-19T11:57:07;37.43;;;4.97;;
15946;SDS011;8072;52.554;7.966;2023-11-19T11:59:49;35.57;;;5.80;;
15946;SDS011;8072;52.554;7.966;2023-11-19T12:02:16;32.13;;;6.50;;
15946;SDS011;8072;52.554;7.966;2023-11-19T12:04:48;31.77;;;6.50;;
15946;SDS011;8072;52.554;7.966;2023-11-19T12:07:21;32.70;;;5.90;;
15946;SDS011;8072;52.554;7.966;2023-11-19T12:10:07;32.90;;;5.80;;
15946;SDS011;8072;52.554;7.966;2023-11-19T12:12:34;31.20;;;5.10;;
15946;SDS011;8072;52.554;7.966;2023-11-19T12:20:04;30.07;;;5.17;;
15946;SDS011;8072;52.554;7.966;2023-11-19T12:22:34;31.97;;;5.17;;
15946;SDS011;8072;52.554;7.966;2023-11-19T12:25:04;29.87;;;5.17;;
15946;SDS011;8072;52.554;7.966;2023-11-19T12:27:32;28.40;;;5.00;;
15946;SDS011;8072;52.554;7.966;2023-11-19T12:29:59;39.57;;;5.83;;
15946;SDS011;8072;52.554;7.966;2023-11-19T12:32:25;40.43;;;6.77;;
15946;SDS011;8072;52.554;7.966;2023-11-19T12:34:53;18.97;;;4.60;;
15946;SDS011;8072;52.554;7.966;2023-11-19T12:37:20;33.07;;;5.30;;
15946;SDS011;8072;52.554;7.966;2023-11-19T12:39:46;36.07;;;5.30;;
15946;SDS011;8072;52.554;7.966;2023-11-19T12:42:12;27.57;;;4.73;;
15946;SDS011;8072;52.554;7.966;2023-11-19T12:44:38;28.80;;;5.77;;
15946;SDS011;8072;52.554;7.966;2023-11-19T12:47:05;33.10;;;5.77;;
15946;SDS011;8072;52.554;7.966;2023-11-19T12:49:32;29.63;;;5.30;;
15946;SDS011;8072;52.554;7.966;2023-11-19T12:51:58;31.00;;;5.20;;
15946;SDS011;8072;52.554;7.966;2023-11-19T12:54:35;25.07;;;4.83;;
15946;SDS011;8072;52.554;7.966;2023-11-19T12:57:02;36.87;;;5.63;;
15946;SDS011;8072;52.554;7.966;2023-11-19T12:59:30;31.90;;;6.30;;
15946;SDS011;8072;52.554;7.966;2023-11-19T13:01:57;27.00;;;6.50;;
15946;SDS011;8072;52.554;7.966;2023-11-19T13:04:27;33.47;;;6.70;;
15946;SDS011;8072;52.554;7.966;2023-11-19T13:06:56;41.70;;;5.37;;
15946;SDS011;8072;52.554;7.966;2023-11-19T13:09:28;30.03;;;5.57;;
15946;SDS011;8072;52.554;7.966;2023-11-19T13:11:54;34.30;;;5.07;;
15946;SDS011;8072;52.554;7.966;2023-11-19T13:14:21;25.27;;;4.13;;
15946;SDS011;8072;52.554;7.966;2023-11-19T13:16:48;30.40;;;5.33;;
15946;SDS011;8072;52.554;7.966;2023-11-19T13:19:14;24.03;;;5.30;;
15946;SDS011;8072;52.554;7.966;2023-11-19T13:21:44;22.87;;;4.20;;
15946;SDS011;8072;52.554;7.966;2023-11-19T13:24:12;29.67;;;4.10;;
15946;SDS011;8072;52.554;7.966;2023-11-19T13:26:38;23.93;;;5.80;;
15946;SDS011;8072;52.554;7.966;2023-11-19T13:29:04;21.17;;;4.30;;
15946;SDS011;8072;52.554;7.966;2023-11-19T13:31:30;27.43;;;4.40;;
15946;SDS011;8072;52.554;7.966;2023-11-19T13:33:56;22.00;;;4.77;;
15946;SDS011;8072;52.554;7.966;2023-11-19T13:36:23;27.60;;;4.40;;
15946;SDS011;8072;52.554;7.966;2023-11-19T13:38:50;19.53;;;4.13;;
15946;SDS011;8072;52.554;7.966;2023-11-19T13:41:16;27.13;;;4.87;;
15946;SDS011;8072;52.554;7.966;2023-11-19T13:43:42;27.80;;;4.13;;
15946;SDS011;8072;52.554;7.966;2023-11-19T13:46:09;22.90;;;4.77;;
15946;SDS011;8072;52.554;7.966;2023-11-19T13:48:37;17.93;;;3.47;;
15946;SDS011;8072;52.554;7.966;2023-11-19T13:51:03;37.70;;;4.73;;
15946;SDS011;8072;52.554;7.966;2023-11-19T13:53:30;25.37;;;4.43;;
15946;SDS011;8072;52.554;7.966;2023-11-19T13:55:56;17.23;;;4.27;;
15946;SDS011;8072;52.554;7.966;2023-11-19T13:58:23;17.87;;;3.57;;
15946;SDS011;8072;52.554;7.966;2023-11-19T14:00:48;21.77;;;3.93;;
15946;SDS011;8072;52.554;7.966;2023-11-19T14:03:15;26.90;;;4.17;;
15946;SDS011;8072;52.554;7.966;2023-11-19T14:05:41;14.60;;;3.70;;
15946;SDS011;8072;52.554;7.966;2023-11-19T14:08:07;15.57;;;3.73;;
15946;SDS011;8072;52.554;7.966;2023-11-19T14:10:39;24.60;;;4.10;;
15946;SDS011;8072;52.554;7.966;2023-11-19T14:13:07;19.47;;;4.00;;
15946;SDS011;8072;52.554;7.966;2023-11-19T14:15:34;22.43;;;4.23;;
15946;SDS011;8072;52.554;7.966;2023-11-19T14:18:01;18.80;;;3.00;;
15946;SDS011;8072;52.554;7.966;2023-11-19T14:20:28;18.27;;;3.53;;
15946;SDS011;8072;52.554;7.966;2023-11-19T14:22:54;19.47;;;3.30;;
15946;SDS011;8072;52.554;7.966;2023-11-19T14:25:19;21.60;;;3.60;;
15946;SDS011;8072;52.554;7.966;2023-11-19T14:27:46;18.13;;;3.40;;
15946;SDS011;8072;52.554;7.966;2023-11-19T14:30:12;19.97;;;4.13;;
15946;SDS011;8072;52.554;7.966;2023-11-19T14:32:39;20.23;;;4.00;;
15946;SDS011;8072;52.554;7.966;2023-11-19T14:35:07;20.80;;;4.23;;
15946;SDS011;8072;52.554;7.966;2023-11-19T14:37:33;24.87;;;4.47;;
15946;SDS011;8072;52.554;7.966;2023-11-19T14:39:59;23.03;;;4.80;;
15946;SDS011;8072;52.554;7.966;2023-11-19T14:42:26;29.43;;;5.17;;
15946;SDS011;8072;52.554;7.966;2023-11-19T14:44:52;28.87;;;7.00;;
15946;SDS011;8072;52.554;7.966;2023-11-19T14:47:18;27.63;;;5.73;;
15946;SDS011;8072;52.554;7.966;2023-11-19T14:49:45;33.00;;;4.90;;
15946;SDS011;8072;52.554;7.966;2023-11-19T14:52:11;27.80;;;5.17;;
15946;SDS011;8072;52.554;7.966;2023-11-19T14:54:37;27.03;;;4.90;;
15946;SDS011;8072;52.554;7.966;2023-11-19T14:57:06;26.37;;;4.87;;
15946;SDS011;8072;52.554;7.966;2023-11-19T14:59:35;31.10;;;6.40;;
15946;SDS011;8072;52.554;7.966;2023-11-19T15:02:04;30.80;;;4.70;;
15946;SDS011;8072;52.554;7.966;2023-11-19T15:04:33;22.33;;;4.23;;
15946;SDS011;8072;52.554;7.966;2023-11-19T15:06:59;27.07;;;4.47;;
15946;SDS011;8072;52.554;7.966;2023-11-19T15:09:25;23.03;;;4.00;;
15946;SDS011;8072;52.554;7.966;2023-11-19T15:11:55;17.70;;;3.67;;